hwlogo.jpg (8581 bytes)
Home Your Weather Products Services Weather On Your Site Contact
HW Version Logo
Weather Info
Your Weather (Options)
Canadian Weather
International Weather
Enter your " Place, State", US Zip Code or ICAO:  
Forecast Information Radar Information
Quesnel, British Columbia, Canada  Lat: 53.02N, Lon: 122.52W
ICAO Used: CYPR
Current Conditions
Updated: 11:00 PM PST SUN FEB 18 2018
Sun & Moon Information
Clear
Clear
Temp: -4°C
Humidity: 68%
Wind Speed: NE 6 MPH
Barometer: 1028 mb
Dewpoint: -9°C
Heat Index: -4°C
Wind Chill: -8°C
Civil Twilight: 6:46 AM PST Moon Phase:
Waxing Crescent Moon
Sunrise: 7:22 AM PST
Sunset: 5:25 PM PST
Civil Twilight: 6:01 PM PST
Forecast for Quesnel, BC:
(Forecast based on TAF for )
1142 PM PST SUN FEB 18 2018
  
OVERNIGHT MORNING
Clear Mostly
Cloudy
ZoneCast:
Dated: 1142 PM PST SUN FEB 18 2018
Overnight...Clear with winds from the northeast at 6 mph.

Morning...Clear with winds from the northeast at 6 mph. Turning mostly cloudy with winds from the east at 6 mph.

Original Encoded TAF:
Dated: 1142 PM PST SUN FEB 18 2018
2018/02/19 07:42
TAF CYPR 190638Z 1907/1919 03005KT P6SM SKC 
     FM191500 10005KT P6SM FEW080 BKN120 
      RMK FCST BASED ON AUTO OBS. NXT FCST BY 191300Z